createdAt,value
2018-07-04T00:02:02.631Z,99.90
2018-07-04T00:04:42.242Z,99.90
2018-07-04T00:07:22.008Z,99.90
2018-07-04T00:10:01.816Z,99.90
2018-07-04T00:12:41.418Z,99.90
2018-07-04T00:15:21.078Z,99.90
2018-07-04T00:18:00.614Z,99.90
2018-07-04T00:20:40.224Z,99.90
2018-07-04T00:23:19.779Z,99.90
2018-07-04T00:25:59.329Z,99.90
2018-07-04T00:28:39.026Z,99.90
2018-07-04T00:31:18.723Z,99.90
2018-07-04T00:33:58.453Z,99.90
2018-07-04T00:36:38.275Z,99.90
2018-07-04T00:39:18.042Z,99.90
2018-07-04T00:41:57.713Z,99.90
2018-07-04T00:44:37.534Z,99.90
2018-07-04T00:47:17.214Z,99.90
2018-07-04T00:49:56.815Z,99.90
2018-07-04T00:52:36.564Z,99.90
2018-07-04T00:55:16.230Z,99.90
2018-07-04T00:57:55.902Z,99.90
2018-07-04T01:00:35.552Z,99.90
2018-07-04T01:03:15.249Z,99.90
2018-07-04T01:05:54.805Z,99.90
2018-07-04T01:08:34.408Z,99.90
2018-07-04T01:11:13.957Z,99.90
2018-07-04T01:13:53.847Z,99.90
2018-07-04T01:16:33.358Z,99.90
2018-07-04T01:19:13.114Z,99.90
2018-07-04T01:21:52.875Z,99.90
2018-07-04T01:24:32.617Z,99.90
2018-07-04T01:27:12.337Z,99.90
2018-07-04T01:29:52.194Z,99.90
2018-07-04T01:32:31.838Z,99.90
2018-07-04T01:35:11.421Z,99.90
2018-07-04T01:37:51.109Z,99.90
2018-07-04T01:40:30.807Z,99.90
2018-07-04T01:43:10.523Z,99.90
2018-07-04T01:45:50.187Z,99.90
2018-07-04T01:48:29.733Z,99.90
2018-07-04T01:51:09.464Z,99.90
2018-07-04T01:53:49.235Z,99.90
2018-07-04T01:56:28.958Z,99.90
2018-07-04T01:59:08.650Z,99.90
2018-07-04T02:01:48.321Z,99.90
2018-07-04T02:04:28.068Z,99.90
2018-07-04T02:07:07.623Z,99.90
2018-07-04T02:09:47.250Z,99.90
2018-07-04T02:12:26.954Z,99.90
2018-07-04T02:15:06.554Z,99.90
2018-07-04T02:17:46.275Z,99.90
2018-07-04T02:20:25.933Z,99.90
2018-07-04T02:23:05.532Z,99.90
2018-07-04T02:25:45.165Z,99.90
2018-07-04T02:28:24.762Z,99.90
2018-07-04T02:31:04.376Z,99.90
2018-07-04T02:33:43.954Z,99.90
2018-07-04T02:36:23.570Z,99.90
2018-07-04T02:39:04.928Z,99.90
2018-07-04T02:41:44.878Z,99.90
2018-07-04T02:44:24.667Z,99.90
2018-07-04T02:47:04.305Z,99.90
2018-07-04T02:49:43.967Z,99.90
2018-07-04T02:52:23.661Z,99.90
2018-07-04T02:55:03.480Z,99.90
2018-07-04T02:57:43.279Z,99.90
2018-07-04T03:00:23.030Z,99.90
2018-07-04T03:03:02.761Z,99.90
2018-07-04T03:05:42.541Z,99.90
2018-07-04T03:08:22.109Z,99.90
2018-07-04T03:11:01.594Z,99.90
2018-07-04T03:13:42.183Z,99.90
2018-07-04T03:16:21.687Z,99.90
2018-07-04T03:19:01.181Z,99.90
2018-07-04T03:21:40.876Z,99.90
2018-07-04T03:24:20.389Z,99.90
2018-07-04T03:26:59.967Z,99.90
2018-07-04T03:29:39.722Z,99.90
2018-07-04T03:32:19.290Z,99.90
2018-07-04T03:34:59.051Z,99.90
2018-07-04T03:37:38.634Z,99.90
2018-07-04T03:40:20.140Z,99.90
2018-07-04T03:43:00.637Z,99.90
2018-07-04T03:45:40.231Z,99.90
2018-07-04T03:48:19.975Z,99.90
2018-07-04T03:50:59.696Z,99.90
2018-07-04T03:53:39.307Z,99.90
2018-07-04T03:56:19.046Z,99.90
2018-07-04T03:58:58.694Z,99.90
2018-07-04T04:01:38.432Z,99.90
2018-07-04T04:04:18.196Z,99.90
2018-07-04T04:06:57.942Z,99.90
2018-07-04T04:09:37.602Z,99.90
2018-07-04T04:12:17.285Z,99.90
2018-07-04T04:14:57.829Z,99.90
2018-07-04T04:17:37.460Z,99.90
2018-07-04T04:20:17.057Z,99.90
2018-07-04T04:22:56.694Z,99.90
2018-07-04T04:25:36.362Z,99.90
2018-07-04T04:28:15.909Z,99.90
2018-07-04T04:30:55.537Z,99.90
2018-07-04T04:33:35.161Z,99.90
2018-07-04T04:36:14.730Z,99.90
2018-07-04T04:38:54.434Z,99.90
2018-07-04T04:41:34.013Z,99.30
2018-07-04T04:44:13.714Z,95.40
2018-07-04T04:46:53.297Z,92.60
2018-07-04T04:49:32.956Z,90.30
2018-07-04T04:52:12.590Z,86.60
2018-07-04T04:54:52.316Z,86.50
2018-07-04T04:57:31.838Z,83.10
2018-07-04T05:00:11.400Z,81.50
2018-07-04T05:02:51.059Z,79.10
2018-07-04T05:05:30.833Z,78.20
2018-07-04T05:08:10.503Z,74.70
2018-07-04T05:10:50.262Z,73.40
2018-07-04T05:13:29.929Z,70.10
2018-07-04T05:16:09.594Z,70.20
2018-07-04T05:18:49.183Z,67.90
2018-07-04T05:21:28.890Z,66.80
2018-07-04T05:24:08.482Z,63.60
2018-07-04T05:26:48.048Z,63.50
2018-07-04T05:29:27.690Z,62.50
2018-07-04T05:32:08.330Z,60.00
2018-07-04T05:34:48.030Z,60.30
2018-07-04T05:37:27.922Z,59.30
2018-07-04T05:40:07.353Z,57.10
2018-07-04T05:45:20.853Z,59.30
2018-07-04T05:48:00.531Z,56.70
2018-07-04T05:50:40.235Z,55.90
2018-07-04T05:53:19.892Z,53.30
2018-07-04T05:55:59.642Z,54.20
2018-07-04T05:58:40.304Z,54.30
2018-07-04T06:01:20.031Z,54.10
2018-07-04T06:03:59.715Z,53.40
2018-07-04T06:06:39.427Z,53.10
2018-07-04T06:09:19.083Z,51.80
2018-07-04T06:11:58.752Z,50.40
2018-07-04T06:14:38.323Z,49.90
2018-07-04T06:17:17.914Z,46.70
2018-07-04T06:19:57.714Z,48.40
2018-07-04T06:22:37.393Z,47.70
2018-07-04T06:25:16.997Z,46.60
2018-07-04T06:27:56.574Z,47.50
2018-07-04T06:30:36.151Z,47.80
2018-07-04T06:33:15.812Z,46.40
2018-07-04T06:35:55.443Z,47.30
2018-07-04T06:38:22.726Z,46.50
2018-07-04T06:40:49.992Z,47.10
2018-07-04T06:43:17.263Z,47.40
2018-07-04T06:45:44.523Z,48.80
2018-07-04T06:48:11.803Z,47.70
2018-07-04T06:50:39.049Z,47.60
2018-07-04T06:53:06.382Z,48.60
2018-07-04T06:55:33.650Z,48.80
2018-07-04T06:58:00.937Z,49.00
2018-07-04T07:00:28.208Z,48.20
2018-07-04T07:03:07.834Z,48.30
2018-07-04T07:05:47.560Z,48.60
2018-07-04T07:08:27.611Z,49.30
2018-07-04T07:11:07.368Z,48.80
2018-07-04T07:13:47.140Z,49.20
2018-07-04T07:16:26.883Z,48.60
2018-07-04T07:19:06.496Z,49.10
2018-07-04T07:21:46.360Z,49.30
2018-07-04T07:24:25.986Z,48.30
2018-07-04T07:27:06.587Z,47.80
2018-07-04T07:29:46.204Z,47.80
2018-07-04T07:32:26.831Z,48.10
2018-07-04T07:35:06.445Z,49.10
2018-07-04T07:37:46.013Z,49.10
2018-07-04T07:40:25.737Z,47.20
2018-07-04T07:43:05.406Z,46.80
2018-07-04T07:45:44.980Z,47.50
2018-07-04T07:48:24.647Z,47.70
2018-07-04T07:51:04.209Z,47.10
2018-07-04T07:53:43.838Z,46.40
2018-07-04T07:56:23.597Z,45.70
2018-07-04T07:59:03.234Z,45.50
2018-07-04T08:01:42.871Z,46.30
2018-07-04T08:48:16.006Z,46.40
2018-07-04T08:50:55.778Z,45.00
2018-07-04T08:53:35.447Z,45.70
2018-07-04T08:56:15.295Z,45.50
2018-07-04T08:58:55.088Z,44.80
2018-07-04T09:01:34.882Z,44.20
2018-07-04T09:04:14.667Z,44.60
2018-07-04T09:06:54.360Z,43.80
2018-07-04T09:09:34.028Z,44.20
2018-07-04T09:12:13.646Z,44.40
2018-07-04T09:14:53.287Z,44.90
2018-07-04T09:17:32.908Z,44.80
2018-07-04T09:20:13.400Z,46.00
2018-07-04T09:22:53.027Z,43.40
2018-07-04T09:25:32.721Z,44.10
2018-07-04T09:30:46.012Z,42.50
2018-07-04T09:33:25.694Z,42.80
2018-07-04T09:36:05.475Z,41.50
2018-07-04T09:38:45.150Z,42.60
2018-07-04T09:41:24.879Z,41.50
2018-07-04T09:44:04.632Z,42.80
2018-07-04T09:46:44.401Z,42.00
2018-07-04T09:49:23.980Z,42.00
2018-07-04T09:52:03.536Z,42.00
2018-07-04T09:54:43.212Z,42.70
2018-07-04T09:57:22.733Z,41.30
2018-07-04T10:00:02.438Z,42.20
2018-07-04T10:02:43.202Z,42.50
2018-07-04T10:05:22.970Z,42.40
2018-07-04T10:08:02.751Z,43.30
2018-07-04T10:10:42.550Z,41.70
2018-07-04T10:13:22.188Z,42.70
2018-07-04T10:16:01.780Z,42.30
2018-07-04T10:18:41.478Z,41.90
2018-07-04T10:21:21.120Z,43.10
2018-07-04T10:24:00.742Z,42.60
2018-07-04T10:26:40.396Z,42.80
2018-07-04T10:29:20.113Z,42.90
2018-07-04T10:31:59.715Z,42.50
2018-07-04T10:34:39.512Z,41.50
2018-07-04T10:37:19.288Z,42.70
2018-07-04T10:39:58.956Z,41.60
2018-07-04T10:42:39.572Z,41.30
2018-07-04T10:45:19.251Z,41.40
2018-07-04T10:47:58.854Z,41.40
2018-07-04T10:50:38.478Z,41.90
2018-07-04T10:53:18.041Z,41.70
2018-07-04T10:55:57.783Z,40.80
2018-07-04T10:58:37.425Z,41.80
2018-07-04T11:01:17.467Z,40.90
2018-07-04T11:03:57.436Z,40.70
2018-07-04T11:06:37.269Z,40.30
2018-07-04T11:09:16.826Z,41.50
2018-07-04T11:11:56.489Z,41.60
2018-07-04T11:14:36.103Z,42.70
2018-07-04T11:17:15.861Z,42.50
2018-07-04T11:19:55.641Z,41.70
2018-07-04T11:22:35.297Z,42.20
2018-07-04T11:25:14.920Z,41.90
2018-07-04T11:27:54.538Z,42.10
2018-07-04T11:30:34.397Z,41.70
2018-07-04T11:33:13.972Z,42.10
2018-07-04T11:35:53.924Z,42.40
2018-07-04T11:38:33.516Z,44.20
2018-07-04T11:41:13.221Z,43.70
2018-07-04T11:43:53.122Z,43.90
2018-07-04T11:46:20.413Z,45.30
2018-07-04T11:48:47.686Z,44.70
2018-07-04T11:51:14.968Z,44.60
2018-07-04T11:53:42.248Z,44.00
2018-07-04T11:56:09.533Z,44.60
2018-07-04T11:58:36.807Z,43.60
2018-07-04T12:01:04.104Z,41.80
2018-07-04T12:03:31.386Z,42.20
2018-07-04T12:06:11.207Z,42.20
2018-07-04T12:11:08.926Z,42.50
2018-07-04T12:13:36.182Z,42.20
2018-07-04T12:16:03.470Z,43.10
2018-07-04T12:18:30.735Z,44.00
2018-07-04T12:20:58.029Z,44.40
2018-07-04T12:23:25.306Z,44.30
2018-07-04T12:25:52.578Z,45.00
2018-07-04T12:28:19.857Z,44.50
2018-07-04T12:30:47.155Z,44.70
2018-07-04T12:35:41.968Z,45.00
2018-07-04T12:38:09.249Z,45.30
2018-07-04T12:40:36.608Z,45.70
2018-07-04T12:43:03.870Z,45.40
2018-07-04T12:45:31.140Z,45.90
2018-07-04T12:47:58.957Z,45.80
2018-07-04T12:50:29.916Z,45.00
2018-07-04T12:52:57.233Z,46.10
2018-07-04T12:55:39.165Z,45.10
2018-07-04T12:58:19.901Z,45.10
2018-07-04T13:00:59.862Z,43.50
2018-07-04T13:03:39.509Z,43.60
2018-07-04T13:06:19.179Z,43.70
2018-07-04T13:08:58.714Z,43.00
2018-07-04T13:11:38.304Z,42.40
2018-07-04T13:14:18.074Z,42.70
2018-07-04T13:16:57.739Z,42.30
2018-07-04T13:22:10.870Z,40.20
2018-07-04T13:24:50.513Z,38.90
2018-07-04T13:27:30.280Z,38.20
2018-07-04T13:30:10.093Z,37.80
2018-07-04T13:32:49.835Z,38.80
2018-07-04T13:35:29.587Z,37.80
2018-07-04T13:38:09.262Z,38.60
2018-07-04T13:40:48.973Z,37.50
2018-07-04T13:43:28.718Z,37.90
2018-07-04T13:46:08.249Z,38.80
2018-07-04T13:48:47.862Z,38.60
2018-07-04T13:51:58.377Z,39.20
2018-07-04T13:54:38.163Z,38.50
2018-07-04T13:57:17.973Z,38.60
2018-07-04T13:59:57.661Z,39.30
2018-07-04T14:02:37.335Z,38.90
2018-07-04T14:05:16.984Z,38.90
2018-07-04T14:07:56.713Z,40.20
2018-07-04T14:10:37.568Z,39.90
2018-07-04T14:13:17.557Z,40.80
2018-07-04T14:15:57.577Z,40.30
2018-07-04T14:18:37.460Z,40.70
2018-07-04T14:21:17.288Z,40.50
2018-07-04T14:23:56.997Z,41.30
2018-07-04T14:26:36.928Z,42.50
2018-07-04T14:29:16.752Z,42.20
2018-07-04T14:31:56.408Z,42.60
2018-07-04T14:34:36.133Z,42.70
2018-07-04T14:37:15.997Z,42.20
2018-07-04T14:39:55.702Z,43.20
2018-07-04T14:42:35.376Z,44.70
2018-07-04T14:45:15.140Z,43.90
2018-07-04T14:48:58.101Z,43.10
2018-07-04T14:51:37.697Z,43.10
2018-07-04T14:54:17.391Z,43.50
2018-07-04T14:56:56.993Z,43.70
2018-07-04T14:59:36.649Z,43.90
2018-07-04T15:02:16.192Z,43.90
2018-07-04T15:04:55.822Z,44.50
2018-07-04T15:07:35.593Z,44.20
2018-07-04T15:10:15.267Z,43.80
2018-07-04T15:12:54.901Z,44.10
2018-07-04T15:15:34.517Z,44.20
2018-07-04T15:18:14.152Z,45.10
2018-07-04T15:20:53.883Z,44.30
2018-07-04T15:23:33.594Z,45.10
2018-07-04T15:26:13.341Z,44.70
2018-07-04T15:28:53.353Z,44.40
2018-07-04T15:31:32.876Z,44.80
2018-07-04T15:34:12.520Z,44.30
2018-07-04T15:36:52.126Z,44.50
2018-07-04T15:39:32.861Z,44.50
2018-07-04T15:42:12.644Z,44.80
2018-07-04T15:44:52.506Z,44.80
2018-07-04T15:47:32.194Z,44.80
2018-07-04T15:50:11.829Z,45.20
2018-07-04T15:52:51.504Z,45.20
2018-07-04T15:55:31.116Z,45.30
2018-07-04T15:58:10.937Z,45.40
2018-07-04T16:00:50.754Z,45.10
2018-07-04T16:03:30.542Z,45.70
2018-07-04T16:06:10.203Z,45.30
2018-07-04T16:08:49.827Z,45.10
2018-07-04T16:11:29.542Z,44.80
2018-07-04T16:14:09.304Z,44.50
2018-07-04T16:16:49.103Z,44.90
2018-07-04T16:19:28.659Z,44.90
2018-07-04T16:22:08.356Z,45.00
2018-07-04T16:24:47.977Z,45.20
2018-07-04T16:27:27.724Z,45.60
2018-07-04T16:30:07.433Z,45.60
2018-07-04T16:32:47.125Z,45.60
2018-07-04T16:35:26.781Z,46.30
2018-07-04T16:38:06.606Z,45.40
2018-07-04T16:40:46.255Z,45.80
2018-07-04T16:43:26.830Z,45.60
2018-07-04T16:46:06.511Z,45.00
2018-07-04T16:48:46.117Z,45.60
2018-07-04T16:51:25.639Z,45.80
2018-07-04T16:54:05.302Z,45.40
2018-07-04T16:56:44.923Z,45.50
2018-07-04T16:59:24.547Z,45.70
2018-07-04T17:02:04.200Z,45.60
2018-07-04T17:04:43.870Z,45.20
2018-07-04T17:07:23.654Z,45.80
2018-07-04T17:10:03.498Z,45.20
2018-07-04T17:12:43.221Z,45.40
2018-07-04T17:15:22.885Z,46.60
2018-07-04T17:18:02.749Z,46.60
2018-07-04T17:20:42.472Z,46.80
2018-07-04T17:23:22.255Z,46.40
2018-07-04T17:26:02.102Z,46.50
2018-07-04T17:28:41.918Z,46.40
2018-07-04T17:31:21.455Z,45.50
2018-07-04T17:34:01.006Z,46.20
2018-07-04T17:36:40.639Z,46.30
2018-07-04T17:39:20.377Z,46.30
2018-07-04T17:42:00.106Z,46.60
2018-07-04T17:44:39.941Z,47.20
2018-07-04T17:47:19.817Z,47.40
2018-07-04T17:49:59.538Z,47.60
2018-07-04T17:52:39.198Z,48.30
2018-07-04T17:55:19.058Z,48.00
2018-07-04T17:57:58.819Z,48.10
2018-07-04T18:00:38.537Z,48.10
2018-07-04T18:03:18.131Z,48.30
2018-07-04T18:05:57.781Z,48.40
2018-07-04T18:08:37.583Z,48.70
2018-07-04T18:11:17.299Z,49.00
2018-07-04T18:13:56.941Z,49.00
2018-07-04T18:16:36.532Z,49.60
2018-07-04T18:19:16.160Z,49.50
2018-07-04T18:21:55.913Z,49.90
2018-07-04T18:24:35.556Z,49.90
2018-07-04T18:27:15.153Z,50.70
2018-07-04T18:29:54.830Z,51.30
2018-07-04T18:32:34.523Z,51.00
2018-07-04T18:35:14.035Z,51.00
2018-07-04T18:37:53.719Z,51.70
2018-07-04T18:40:33.341Z,52.50
2018-07-04T18:43:12.950Z,52.40
2018-07-04T18:45:52.682Z,52.50
2018-07-04T18:48:38.904Z,53.10
2018-07-04T18:51:34.562Z,53.20
2018-07-04T18:54:14.402Z,54.10
2018-07-04T18:56:54.571Z,54.30
2018-07-04T18:59:35.129Z,54.30
2018-07-04T19:02:14.887Z,54.90
2018-07-04T19:04:54.559Z,55.90
2018-07-04T19:07:34.218Z,56.00
2018-07-04T19:10:13.983Z,56.00
2018-07-04T19:12:53.736Z,56.70
2018-07-04T19:15:34.590Z,57.90
2018-07-04T19:18:14.271Z,57.60
2018-07-04T19:20:56.000Z,57.90
2018-07-04T19:23:36.372Z,58.60
2018-07-04T19:26:16.065Z,59.00
2018-07-04T19:28:55.812Z,59.30
2018-07-04T19:31:54.456Z,60.30
2018-07-04T19:36:19.276Z,60.90
2018-07-04T19:48:32.331Z,62.90
2018-07-04T20:18:09.240Z,68.90
2018-07-04T20:52:01.664Z,70.10
2018-07-04T21:43:01.270Z,75.40
2018-07-04T21:45:40.859Z,84.60
2018-07-04T21:48:20.603Z,85.60
2018-07-04T21:51:00.355Z,86.70
2018-07-04T21:53:39.993Z,87.50
2018-07-04T21:59:54.470Z,90.50
2018-07-04T22:02:34.115Z,91.80
2018-07-04T22:05:13.793Z,92.10
2018-07-04T22:07:53.432Z,92.50
2018-07-04T22:10:33.097Z,94.20
2018-07-04T22:13:12.738Z,95.60
2018-07-04T22:15:52.446Z,96.60
2018-07-04T22:18:32.102Z,97.10
2018-07-04T22:21:11.769Z,97.60
2018-07-04T22:23:51.438Z,99.90
2018-07-04T22:26:31.061Z,99.90
2018-07-04T22:29:10.691Z,99.90
2018-07-04T22:31:50.276Z,99.90
2018-07-04T22:37:04.002Z,99.90
2018-07-04T22:39:43.847Z,99.90
2018-07-04T22:42:23.604Z,99.90
2018-07-04T22:45:04.819Z,99.90
2018-07-04T22:47:44.381Z,99.90
2018-07-04T22:50:24.081Z,99.90
2018-07-04T22:53:03.692Z,99.90
2018-07-04T22:55:43.450Z,99.90
2018-07-04T22:58:23.108Z,99.90
2018-07-04T23:01:02.759Z,99.90
2018-07-04T23:03:42.499Z,99.90
2018-07-04T23:06:22.359Z,99.90
2018-07-04T23:09:02.100Z,99.90
2018-07-04T23:11:41.656Z,99.90
2018-07-04T23:14:21.262Z,99.90
2018-07-04T23:17:00.922Z,99.90
2018-07-04T23:19:40.658Z,99.90
2018-07-04T23:22:20.504Z,99.90
2018-07-04T23:25:00.284Z,99.90
2018-07-04T23:27:40.136Z,99.90
2018-07-04T23:30:19.858Z,99.90
2018-07-04T23:32:59.672Z,99.90
2018-07-04T23:35:39.357Z,99.90
2018-07-04T23:38:19.090Z,99.90
2018-07-04T23:40:58.734Z,99.90
2018-07-04T23:43:38.575Z,99.90
2018-07-04T23:46:18.454Z,99.90
2018-07-04T23:48:58.152Z,99.90
2018-07-04T23:51:37.827Z,99.90
2018-07-04T23:54:17.284Z,99.90
2018-07-04T23:56:56.805Z,99.90
2018-07-04T23:59:36.534Z,99.90
